createdAt,value
2023-02-19T00:00:16.087Z,990.598
2023-02-19T00:01:16.640Z,990.729
2023-02-19T00:02:16.234Z,990.739
2023-02-19T00:03:16.775Z,990.756
2023-02-19T00:04:16.637Z,990.605
2023-02-19T00:05:16.414Z,990.481
2023-02-19T00:06:16.646Z,990.625
2023-02-19T00:07:16.233Z,990.539
2023-02-19T00:08:16.845Z,990.628
2023-02-19T00:09:16.485Z,990.544
2023-02-19T00:10:16.001Z,990.464
2023-02-19T00:11:16.665Z,990.451
2023-02-19T00:12:16.293Z,990.539
2023-02-19T00:13:16.899Z,990.657
2023-02-19T00:14:16.524Z,990.281
2023-02-19T00:15:16.118Z,990.376
2023-02-19T00:16:16.862Z,990.521
2023-02-19T00:17:16.403Z,990.626
2023-02-19T00:18:16.045Z,990.584
2023-02-19T00:19:16.612Z,990.567
2023-02-19T00:20:16.259Z,990.643
2023-02-19T00:21:16.887Z,990.623
2023-02-19T00:22:16.483Z,990.693
2023-02-19T00:23:16.051Z,990.557
2023-02-19T00:24:16.602Z,990.503
2023-02-19T00:25:16.115Z,990.604
2023-02-19T00:26:18.706Z,990.629
2023-02-19T00:27:16.612Z,990.532
2023-02-19T00:28:16.218Z,990.656
2023-02-19T00:29:16.887Z,990.558
2023-02-19T00:30:16.715Z,990.590
2023-02-19T00:31:16.662Z,990.574
2023-02-19T00:32:16.742Z,990.465
2023-02-19T00:33:16.368Z,990.482
2023-02-19T00:34:16.934Z,990.468
2023-02-19T00:35:16.557Z,990.556
2023-02-19T00:37:16.665Z,990.508
2023-02-19T00:38:16.309Z,990.301
2023-02-19T00:39:16.415Z,990.367
2023-02-19T00:40:16.021Z,990.188
2023-02-19T00:41:16.616Z,990.538
2023-02-19T00:42:16.256Z,990.354
2023-02-19T00:43:16.876Z,990.333
2023-02-19T00:44:16.495Z,990.340
2023-02-19T00:45:16.072Z,990.407
2023-02-19T00:46:16.822Z,990.301
2023-02-19T00:47:16.567Z,990.417
2023-02-19T00:48:16.395Z,990.485
2023-02-19T00:49:16.066Z,990.287
2023-02-19T00:50:16.692Z,990.277
2023-02-19T00:51:16.287Z,990.360
2023-02-19T00:52:16.934Z,990.313
2023-02-19T00:53:16.600Z,990.296
2023-02-19T00:54:16.172Z,990.251
2023-02-19T00:55:16.373Z,990.383
2023-02-19T00:56:16.971Z,990.340
2023-02-19T00:57:16.590Z,990.202
2023-02-19T00:58:16.256Z,990.372
2023-02-19T00:59:16.863Z,990.239
2023-02-19T01:00:16.519Z,990.174
2023-02-19T01:01:16.184Z,990.201
2023-02-19T01:02:16.222Z,989.977
2023-02-19T01:03:16.883Z,990.051
2023-02-19T01:04:16.524Z,990.022
2023-02-19T01:05:16.665Z,990.049
2023-02-19T01:06:16.303Z,990.195
2023-02-19T01:07:16.045Z,990.244
2023-02-19T01:08:16.695Z,990.259
2023-02-19T01:09:16.287Z,990.110
2023-02-19T01:10:16.928Z,990.240
2023-02-19T01:11:16.548Z,990.133
2023-02-19T01:12:16.180Z,990.323
2023-02-19T01:13:16.928Z,990.055
2023-02-19T01:14:16.504Z,990.002
2023-02-19T01:15:16.036Z,990.126
2023-02-19T01:16:16.666Z,990.104
2023-02-19T01:17:16.274Z,990.067
2023-02-19T01:19:16.456Z,990.147
2023-02-19T01:20:17.012Z,990.103
2023-02-19T01:21:16.646Z,990.038
2023-02-19T01:22:16.187Z,990.164
2023-02-19T01:24:16.377Z,990.018
2023-02-19T01:25:16.108Z,989.957
2023-02-19T01:26:16.877Z,990.073
2023-02-19T01:27:16.536Z,989.939
2023-02-19T01:28:16.199Z,990.050
2023-02-19T01:29:16.869Z,989.889
2023-02-19T01:30:16.725Z,989.885
2023-02-19T01:31:16.288Z,989.964
2023-02-19T01:32:16.390Z,989.943
2023-02-19T01:33:16.071Z,989.798
2023-02-19T01:34:16.696Z,989.822
2023-02-19T01:35:16.377Z,989.736
2023-02-19T01:36:16.998Z,989.721
2023-02-19T01:37:16.649Z,989.770
2023-02-19T01:38:16.208Z,989.871
2023-02-19T01:39:16.813Z,989.702
2023-02-19T01:40:16.452Z,989.854
2023-02-19T01:41:16.036Z,989.698
2023-02-19T01:42:16.674Z,989.775
2023-02-19T01:43:16.289Z,989.719
2023-02-19T01:44:16.982Z,989.651
2023-02-19T01:45:16.760Z,989.729
2023-02-19T01:46:16.129Z,989.656
2023-02-19T01:47:16.052Z,989.483
2023-02-19T01:48:16.779Z,989.561
2023-02-19T01:49:16.371Z,989.675
2023-02-19T01:50:16.997Z,989.625
2023-02-19T01:51:16.893Z,989.460
2023-02-19T01:52:16.531Z,989.426
2023-02-19T01:53:16.250Z,989.503
2023-02-19T01:54:16.925Z,989.528
2023-02-19T01:55:16.709Z,989.477
2023-02-19T01:56:16.385Z,989.481
2023-02-19T01:57:16.069Z,989.568
2023-02-19T01:58:16.689Z,989.510
2023-02-19T01:59:16.441Z,989.489
2023-02-19T02:00:16.273Z,989.488
2023-02-19T02:01:16.902Z,989.476
2023-02-19T02:02:16.547Z,989.446
2023-02-19T02:03:16.372Z,989.516
2023-02-19T02:04:16.984Z,989.500
2023-02-19T02:05:16.614Z,989.486
2023-02-19T02:06:16.231Z,989.455
2023-02-19T02:07:16.857Z,989.605
2023-02-19T02:08:16.615Z,989.531
2023-02-19T02:09:16.223Z,989.584
2023-02-19T02:10:16.831Z,989.612
2023-02-19T02:11:16.491Z,989.627
2023-02-19T02:12:16.155Z,989.491
2023-02-19T02:13:16.756Z,989.474
2023-02-19T02:14:16.431Z,989.443
2023-02-19T02:15:16.016Z,989.533
2023-02-19T02:16:16.628Z,989.469
2023-02-19T02:17:16.288Z,989.542
2023-02-19T02:18:16.823Z,989.389
2023-02-19T02:19:16.438Z,989.357
2023-02-19T02:20:16.040Z,989.460
2023-02-19T02:21:16.610Z,989.414
2023-02-19T02:22:16.436Z,989.442
2023-02-19T02:23:16.070Z,989.520
2023-02-19T02:24:16.716Z,989.394
2023-02-19T02:25:16.414Z,989.466
2023-02-19T02:26:17.042Z,989.527
2023-02-19T02:27:16.797Z,989.234
2023-02-19T02:28:16.452Z,989.504
2023-02-19T02:29:16.117Z,989.419
2023-02-19T02:30:16.920Z,989.318
2023-02-19T02:31:21.626Z,989.315
2023-02-19T02:32:16.139Z,989.248
2023-02-19T02:33:16.710Z,989.323
2023-02-19T02:34:16.362Z,989.246
2023-02-19T02:35:16.996Z,989.421
2023-02-19T02:36:16.564Z,989.353
2023-02-19T02:37:16.215Z,989.404
2023-02-19T02:38:16.823Z,989.242
2023-02-19T02:39:16.463Z,989.372
2023-02-19T02:40:16.048Z,989.371
2023-02-19T02:41:16.616Z,989.186
2023-02-19T02:42:16.303Z,989.231
2023-02-19T02:43:16.937Z,989.131
2023-02-19T02:44:16.780Z,989.170
2023-02-19T02:45:16.645Z,989.247
2023-02-19T02:46:16.720Z,989.077
2023-02-19T02:47:16.426Z,989.182
2023-02-19T02:49:16.774Z,989.227
2023-02-19T02:50:16.452Z,989.354
2023-02-19T02:51:16.209Z,989.257
2023-02-19T02:52:16.989Z,988.647
2023-02-19T02:53:16.630Z,989.138
2023-02-19T02:54:16.292Z,989.145
2023-02-19T02:55:16.941Z,989.133
2023-02-19T02:56:16.631Z,989.112
2023-02-19T02:57:16.334Z,988.978
2023-02-19T02:59:16.568Z,988.996
2023-02-19T03:00:16.397Z,989.094
2023-02-19T03:01:16.225Z,989.075
2023-02-19T03:02:17.030Z,989.138
2023-02-19T03:03:16.709Z,989.085
2023-02-19T03:04:16.345Z,988.956
2023-02-19T03:05:16.967Z,989.073
2023-02-19T03:06:16.599Z,988.923
2023-02-19T03:07:16.324Z,988.899
2023-02-19T03:08:16.038Z,989.066
2023-02-19T03:09:16.587Z,989.190
2023-02-19T03:10:16.228Z,988.757
2023-02-19T03:11:16.866Z,988.729
2023-02-19T03:12:16.472Z,989.052
2023-02-19T03:13:16.113Z,988.797
2023-02-19T03:14:16.800Z,988.982
2023-02-19T03:15:16.395Z,989.001
2023-02-19T03:16:16.029Z,989.026
2023-02-19T03:18:16.747Z,989.059
2023-02-19T03:19:16.444Z,988.894
2023-02-19T03:20:17.013Z,988.954
2023-02-19T03:21:16.833Z,988.954
2023-02-19T03:22:16.402Z,988.897
2023-02-19T03:23:16.053Z,988.976
2023-02-19T03:24:16.750Z,988.929
2023-02-19T03:25:16.421Z,988.900
2023-02-19T03:26:16.133Z,988.823
2023-02-19T03:27:16.769Z,988.720
2023-02-19T03:28:16.553Z,988.875
2023-02-19T03:29:16.249Z,988.918
2023-02-19T03:30:16.907Z,988.777
2023-02-19T03:31:17.000Z,988.712
2023-02-19T03:32:16.403Z,988.723
2023-02-19T03:33:16.956Z,988.816
2023-02-19T03:34:16.565Z,988.905
2023-02-19T03:35:16.463Z,988.661
2023-02-19T03:36:16.296Z,988.656
2023-02-19T03:37:16.916Z,988.610
2023-02-19T03:38:16.568Z,988.752
2023-02-19T03:39:16.203Z,988.732
2023-02-19T03:40:16.834Z,988.789
2023-02-19T03:41:16.490Z,988.712
2023-02-19T03:42:16.220Z,988.667
2023-02-19T03:43:16.490Z,988.668
2023-02-19T03:44:16.727Z,988.702
2023-02-19T03:45:16.524Z,988.826
2023-02-19T03:46:16.252Z,988.702
2023-02-19T03:47:16.904Z,988.692
2023-02-19T03:48:16.481Z,988.851
2023-02-19T03:49:16.109Z,988.771
2023-02-19T03:50:16.741Z,988.956
2023-02-19T03:51:16.405Z,988.844
2023-02-19T03:52:16.838Z,988.690
2023-02-19T03:53:16.494Z,988.769
2023-02-19T03:54:16.201Z,988.880
2023-02-19T03:55:16.795Z,988.788
2023-02-19T03:56:16.527Z,988.826
2023-02-19T03:57:16.089Z,988.612
2023-02-19T03:58:16.718Z,988.877
2023-02-19T03:59:16.313Z,988.841
2023-02-19T04:00:16.904Z,988.531
2023-02-19T04:01:16.540Z,988.647
2023-02-19T04:02:17.886Z,988.746
2023-02-19T04:03:16.456Z,988.822
2023-02-19T04:04:16.151Z,988.770
2023-02-19T04:05:16.073Z,988.806
2023-02-19T04:06:16.697Z,988.839
2023-02-19T04:07:16.444Z,988.914
2023-02-19T04:08:16.068Z,988.845
2023-02-19T04:09:16.808Z,988.777
2023-02-19T04:10:16.616Z,988.743
2023-02-19T04:11:16.492Z,988.820
2023-02-19T04:12:16.064Z,988.721
2023-02-19T04:13:16.672Z,988.857
2023-02-19T04:14:16.262Z,988.782
2023-02-19T04:15:16.254Z,988.831
2023-02-19T04:16:17.171Z,988.791
2023-02-19T04:17:16.961Z,988.793
2023-02-19T04:18:16.500Z,988.753
2023-02-19T04:19:16.169Z,988.749
2023-02-19T04:20:17.047Z,988.930
2023-02-19T04:21:16.805Z,988.819
2023-02-19T04:22:16.509Z,988.560
2023-02-19T04:23:16.119Z,988.617
2023-02-19T04:24:16.900Z,988.660
2023-02-19T04:25:16.580Z,988.470
2023-02-19T04:26:16.192Z,988.761
2023-02-19T04:27:16.867Z,988.825
2023-02-19T04:28:16.684Z,988.868
2023-02-19T04:29:16.331Z,988.789
2023-02-19T04:30:16.209Z,988.962
2023-02-19T04:31:16.163Z,988.879
2023-02-19T04:32:16.124Z,988.911
2023-02-19T04:33:16.456Z,988.842
2023-02-19T04:34:16.085Z,988.836
2023-02-19T04:35:16.669Z,988.760
2023-02-19T04:36:16.252Z,988.811
2023-02-19T04:38:16.415Z,988.885
2023-02-19T04:39:16.020Z,989.012
2023-02-19T04:40:16.655Z,988.982
2023-02-19T04:41:16.224Z,988.913
2023-02-19T04:42:16.883Z,988.793
2023-02-19T04:43:16.508Z,988.987
2023-02-19T04:44:16.097Z,988.726
2023-02-19T04:45:16.778Z,989.000
2023-02-19T04:46:16.624Z,989.040
2023-02-19T04:47:16.245Z,989.104
2023-02-19T04:48:16.848Z,988.977
2023-02-19T04:49:16.505Z,989.006
2023-02-19T04:50:16.048Z,988.986
2023-02-19T04:51:16.833Z,989.066
2023-02-19T04:52:16.427Z,988.939
2023-02-19T04:53:15.999Z,989.036
2023-02-19T04:54:16.570Z,989.063
2023-02-19T04:55:16.149Z,989.069
2023-02-19T04:56:16.837Z,988.993
2023-02-19T04:58:16.051Z,988.966
2023-02-19T04:59:16.714Z,989.010
2023-02-19T05:00:16.320Z,988.991
2023-02-19T05:01:16.164Z,989.050
2023-02-19T05:02:16.099Z,988.987
2023-02-19T05:03:16.339Z,988.921
2023-02-19T05:04:16.135Z,988.977
2023-02-19T05:05:16.727Z,988.845
2023-02-19T05:06:16.381Z,988.846
2023-02-19T05:07:16.027Z,988.767
2023-02-19T05:08:16.767Z,989.056
2023-02-19T05:09:16.461Z,988.716
2023-02-19T05:10:16.985Z,988.942
2023-02-19T05:11:16.618Z,988.681
2023-02-19T05:12:16.242Z,988.960
2023-02-19T05:13:16.950Z,988.882
2023-02-19T05:14:16.789Z,988.993
2023-02-19T05:15:16.408Z,988.974
2023-02-19T05:16:16.428Z,988.968
2023-02-19T05:17:16.089Z,988.888
2023-02-19T05:18:16.741Z,988.889
2023-02-19T05:19:16.565Z,988.961
2023-02-19T05:20:16.242Z,988.948
2023-02-19T05:21:16.941Z,988.940
2023-02-19T05:22:16.585Z,988.934
2023-02-19T05:23:16.408Z,988.952
2023-02-19T05:24:16.089Z,988.852
2023-02-19T05:25:16.736Z,989.003
2023-02-19T05:26:16.396Z,988.881
2023-02-19T05:27:16.981Z,988.813
2023-02-19T05:28:16.704Z,988.962
2023-02-19T05:29:16.305Z,988.861
2023-02-19T05:30:16.947Z,988.650
2023-02-19T05:31:16.972Z,988.767
2023-02-19T05:32:16.099Z,988.795
2023-02-19T05:33:16.752Z,988.934
2023-02-19T05:34:16.355Z,988.912
2023-02-19T05:35:16.952Z,989.039
2023-02-19T05:36:16.594Z,988.917
2023-02-19T05:37:16.152Z,988.892
2023-02-19T05:38:16.811Z,988.836
2023-02-19T05:39:16.465Z,988.961
2023-02-19T05:40:16.990Z,989.078
2023-02-19T05:41:16.115Z,988.951
2023-02-19T05:42:16.664Z,988.932
2023-02-19T05:43:16.260Z,988.990
2023-02-19T05:44:16.905Z,989.016
2023-02-19T05:45:16.557Z,989.167
2023-02-19T05:46:16.232Z,988.955
2023-02-19T05:47:16.877Z,988.856
2023-02-19T05:48:16.520Z,989.183
2023-02-19T05:49:16.129Z,989.034
2023-02-19T05:50:16.696Z,989.153
2023-02-19T05:51:16.545Z,989.058
2023-02-19T05:52:16.137Z,989.071
2023-02-19T05:53:16.948Z,989.292
2023-02-19T05:54:16.587Z,989.177
2023-02-19T05:55:16.286Z,989.149
2023-02-19T05:56:16.005Z,989.034
2023-02-19T05:57:16.620Z,989.156
2023-02-19T05:58:16.244Z,989.203
2023-02-19T05:59:16.132Z,988.923
2023-02-19T06:00:16.792Z,989.212
2023-02-19T06:01:16.504Z,988.908
2023-02-19T06:02:16.111Z,988.954
2023-02-19T06:03:16.920Z,988.990
2023-02-19T06:05:16.669Z,989.017
2023-02-19T06:06:16.263Z,989.111
2023-02-19T06:07:16.860Z,989.186
2023-02-19T06:08:16.492Z,989.006
2023-02-19T06:09:16.152Z,989.103
2023-02-19T06:10:16.736Z,989.200
2023-02-19T06:11:16.379Z,989.439
2023-02-19T06:12:16.023Z,989.223
2023-02-19T06:13:17.776Z,989.272
2023-02-19T06:14:16.473Z,989.166
2023-02-19T06:15:16.049Z,989.017
2023-02-19T06:16:16.880Z,989.268
2023-02-19T06:17:16.467Z,989.292
2023-02-19T06:18:16.073Z,989.262
2023-02-19T06:19:16.875Z,989.411
2023-02-19T06:20:16.582Z,989.391
2023-02-19T06:21:16.209Z,989.192
2023-02-19T06:22:16.853Z,989.127
2023-02-19T06:23:16.524Z,989.163
2023-02-19T06:24:16.165Z,989.449
2023-02-19T06:25:16.776Z,989.385
2023-02-19T06:26:16.424Z,989.564
2023-02-19T06:27:16.041Z,989.250
2023-02-19T06:28:16.764Z,989.382
2023-02-19T06:30:16.869Z,989.440
2023-02-19T06:31:16.545Z,989.441
2023-02-19T06:32:16.513Z,989.437
2023-02-19T06:33:16.183Z,989.442
2023-02-19T06:34:16.851Z,989.620
2023-02-19T06:35:16.452Z,989.600
2023-02-19T06:36:16.081Z,989.425
2023-02-19T06:37:16.737Z,989.356
2023-02-19T06:38:16.405Z,989.563
2023-02-19T06:39:16.924Z,989.572
2023-02-19T06:40:16.532Z,989.572
2023-02-19T06:42:16.749Z,989.538
2023-02-19T06:43:16.404Z,989.597
2023-02-19T06:44:16.020Z,989.600
2023-02-19T06:45:16.697Z,989.335
2023-02-19T06:47:16.143Z,989.262
2023-02-19T06:48:16.717Z,989.517
2023-02-19T06:49:16.413Z,989.564
2023-02-19T06:50:16.091Z,989.627
2023-02-19T06:51:16.700Z,989.567
2023-02-19T06:52:16.277Z,989.414
2023-02-19T06:53:16.014Z,989.548
2023-02-19T06:54:16.600Z,989.586
2023-02-19T06:55:16.228Z,989.653
2023-02-19T06:56:16.821Z,989.518
2023-02-19T06:57:16.464Z,989.327
2023-02-19T06:58:16.136Z,989.559
2023-02-19T06:59:16.867Z,989.601
2023-02-19T07:00:16.535Z,989.503
2023-02-19T07:01:16.441Z,989.331
2023-02-19T07:02:16.084Z,989.628
2023-02-19T07:03:16.746Z,989.736
2023-02-19T07:04:16.235Z,989.719
2023-02-19T07:05:16.878Z,989.474
2023-02-19T07:06:16.656Z,989.456
2023-02-19T07:07:16.277Z,989.642
2023-02-19T07:08:16.912Z,989.531
2023-02-19T07:09:16.545Z,989.792
2023-02-19T07:10:16.189Z,989.487
2023-02-19T07:11:16.783Z,989.601
2023-02-19T07:12:16.490Z,989.799
2023-02-19T07:14:16.716Z,989.587
2023-02-19T07:15:16.381Z,989.639
2023-02-19T07:16:16.993Z,989.879
2023-02-19T07:17:16.831Z,989.889
2023-02-19T07:19:16.111Z,989.704
2023-02-19T07:20:16.736Z,989.827
2023-02-19T07:21:16.319Z,989.800
2023-02-19T07:22:16.972Z,989.885
2023-02-19T07:23:16.579Z,989.568
2023-02-19T07:24:16.199Z,989.919
2023-02-19T07:25:16.820Z,989.601
2023-02-19T07:26:16.431Z,989.888
2023-02-19T07:27:16.992Z,990.007
2023-02-19T07:28:16.611Z,989.996
2023-02-19T07:29:16.243Z,990.004
2023-02-19T07:30:16.827Z,989.986
2023-02-19T07:31:16.557Z,989.802
2023-02-19T07:32:16.493Z,989.915
2023-02-19T07:33:16.177Z,990.025
2023-02-19T07:34:18.592Z,990.080
2023-02-19T07:35:16.284Z,989.879
2023-02-19T07:36:16.950Z,990.142
2023-02-19T07:37:16.601Z,989.895
2023-02-19T07:38:16.362Z,990.028
2023-02-19T07:39:16.994Z,990.019
2023-02-19T07:41:16.221Z,990.112
2023-02-19T07:42:16.800Z,990.048
2023-02-19T07:43:16.400Z,990.216
2023-02-19T07:44:16.029Z,990.151
2023-02-19T07:45:16.673Z,990.074
2023-02-19T07:46:16.449Z,989.523
2023-02-19T07:47:16.114Z,990.057
2023-02-19T07:48:16.721Z,990.123
2023-02-19T07:49:16.352Z,990.073
2023-02-19T07:50:16.194Z,990.144
2023-02-19T07:51:16.776Z,990.108
2023-02-19T07:52:16.412Z,989.758
2023-02-19T07:53:16.085Z,989.920
2023-02-19T07:54:16.695Z,989.961
2023-02-19T07:55:16.290Z,989.861
2023-02-19T07:56:16.925Z,989.958
2023-02-19T07:57:16.560Z,989.478
2023-02-19T07:58:16.172Z,989.880
2023-02-19T07:59:16.805Z,989.819
2023-02-19T08:00:16.474Z,989.794
2023-02-19T08:01:16.480Z,990.085
2023-02-19T08:02:16.373Z,989.975
2023-02-19T08:03:16.043Z,990.101
2023-02-19T08:04:16.474Z,990.150
2023-02-19T08:05:16.133Z,990.123
2023-02-19T08:06:16.743Z,990.196
2023-02-19T08:07:16.412Z,990.219
2023-02-19T08:08:16.093Z,990.235
2023-02-19T08:09:16.774Z,990.194
2023-02-19T08:10:16.426Z,990.173
2023-02-19T08:11:16.977Z,989.999
2023-02-19T08:12:16.628Z,990.306
2023-02-19T08:13:16.333Z,990.374
2023-02-19T08:14:16.979Z,990.429
2023-02-19T08:15:16.645Z,990.518
2023-02-19T08:16:20.238Z,990.191
2023-02-19T08:17:16.758Z,990.144
2023-02-19T08:19:16.971Z,990.158
2023-02-19T08:20:16.685Z,990.403
2023-02-19T08:21:16.348Z,990.316
2023-02-19T08:22:16.608Z,990.471
2023-02-19T08:24:17.036Z,990.310
2023-02-19T08:25:16.663Z,990.490
2023-02-19T08:26:16.333Z,990.397
2023-02-19T08:27:16.907Z,990.317
2023-02-19T08:28:16.580Z,990.367
2023-02-19T08:29:16.232Z,990.305
2023-02-19T08:30:16.044Z,990.400
2023-02-19T08:31:17.001Z,990.301
2023-02-19T08:32:16.090Z,990.476
2023-02-19T08:33:16.797Z,990.227
2023-02-19T08:34:16.469Z,990.432
2023-02-19T08:35:16.969Z,990.503
2023-02-19T08:36:16.623Z,990.347
2023-02-19T08:37:16.314Z,990.489
2023-02-19T08:38:16.910Z,990.065
2023-02-19T08:39:16.534Z,990.677
2023-02-19T08:40:16.124Z,990.601
2023-02-19T08:41:16.764Z,990.538
2023-02-19T08:42:16.493Z,990.658
2023-02-19T08:43:16.186Z,990.743
2023-02-19T08:44:16.772Z,990.761
2023-02-19T08:45:16.494Z,990.536
2023-02-19T08:46:16.238Z,990.688
2023-02-19T08:47:16.615Z,990.695
2023-02-19T08:48:16.320Z,990.798
2023-02-19T08:49:16.931Z,990.379
2023-02-19T08:50:16.711Z,990.639
2023-02-19T08:51:16.423Z,990.681
2023-02-19T08:52:16.983Z,990.776
2023-02-19T08:53:16.741Z,990.864
2023-02-19T08:54:16.347Z,990.843
2023-02-19T08:55:16.149Z,990.909
2023-02-19T08:56:16.278Z,990.612
2023-02-19T08:57:16.925Z,990.852
2023-02-19T08:58:16.672Z,990.906
2023-02-19T08:59:16.384Z,990.967
2023-02-19T09:00:16.102Z,990.653
2023-02-19T09:01:16.733Z,990.704
2023-02-19T09:02:16.391Z,991.022
2023-02-19T09:03:16.053Z,990.833
2023-02-19T09:04:16.914Z,990.789
2023-02-19T09:05:16.676Z,990.951
2023-02-19T09:06:16.272Z,991.009
2023-02-19T09:07:16.965Z,990.956
2023-02-19T09:08:16.600Z,991.000
2023-02-19T09:09:16.277Z,991.020
2023-02-19T09:11:16.471Z,990.899
2023-02-19T09:12:16.093Z,990.974
2023-02-19T09:13:16.761Z,991.072
2023-02-19T09:14:16.396Z,991.241
2023-02-19T09:15:16.025Z,990.998
2023-02-19T09:16:16.815Z,991.292
2023-02-19T09:17:16.468Z,991.219
2023-02-19T09:18:16.053Z,991.105
2023-02-19T09:19:16.735Z,991.101
2023-02-19T09:20:16.800Z,991.218
2023-02-19T09:21:16.501Z,990.677
2023-02-19T09:22:16.168Z,991.291
2023-02-19T09:23:16.792Z,991.229
2023-02-19T09:24:16.435Z,990.906
2023-02-19T09:25:16.089Z,991.294
2023-02-19T09:26:16.701Z,990.929
2023-02-19T09:27:16.854Z,991.240
2023-02-19T09:28:16.664Z,991.260
2023-02-19T09:29:16.323Z,991.219
2023-02-19T09:30:17.008Z,991.421
2023-02-19T09:31:17.116Z,991.342
2023-02-19T09:32:18.785Z,991.515
2023-02-19T09:33:16.664Z,991.269
2023-02-19T09:34:16.316Z,991.152
2023-02-19T09:35:16.115Z,991.421
2023-02-19T09:36:16.765Z,991.450
2023-02-19T09:37:16.407Z,991.380
2023-02-19T09:38:16.244Z,991.398
2023-02-19T09:39:16.844Z,991.090
2023-02-19T09:40:16.412Z,991.145
2023-02-19T09:41:16.832Z,991.403
2023-02-19T09:42:16.624Z,991.488
2023-02-19T09:43:16.238Z,991.312
2023-02-19T09:44:16.913Z,991.313
2023-02-19T09:45:16.514Z,991.373
2023-02-19T09:46:16.088Z,991.556
2023-02-19T09:47:16.820Z,991.278
2023-02-19T09:48:16.429Z,991.425
2023-02-19T09:49:16.072Z,991.534
2023-02-19T09:50:16.716Z,991.551
2023-02-19T09:51:16.369Z,991.553
2023-02-19T09:52:16.141Z,991.400
2023-02-19T09:53:16.753Z,991.481
2023-02-19T09:54:16.361Z,991.470
2023-02-19T09:55:16.305Z,991.369
2023-02-19T09:56:16.993Z,991.337
2023-02-19T09:57:16.312Z,991.447
2023-02-19T09:58:16.175Z,991.474
2023-02-19T09:59:16.832Z,991.253
2023-02-19T10:00:16.452Z,991.430
2023-02-19T10:01:16.109Z,991.419
2023-02-19T10:02:16.032Z,991.369
2023-02-19T10:03:16.723Z,991.477
2023-02-19T10:04:16.380Z,991.632
2023-02-19T10:05:16.462Z,991.491
2023-02-19T10:06:16.250Z,991.464
2023-02-19T10:07:16.921Z,991.414
2023-02-19T10:08:16.535Z,991.393
2023-02-19T10:09:16.185Z,991.465
2023-02-19T10:10:16.891Z,991.473
2023-02-19T10:11:16.373Z,991.577
2023-02-19T10:12:16.980Z,991.310
2023-02-19T10:13:16.650Z,991.586
2023-02-19T10:14:16.313Z,991.532
2023-02-19T10:15:16.010Z,991.569
2023-02-19T10:16:16.738Z,991.491
2023-02-19T10:17:16.305Z,991.378
2023-02-19T10:18:16.979Z,991.387
2023-02-19T10:19:16.601Z,991.520
2023-02-19T10:20:16.305Z,991.652
2023-02-19T10:21:16.535Z,991.467
2023-02-19T10:22:16.345Z,991.557
2023-02-19T10:23:16.933Z,991.658
2023-02-19T10:24:16.615Z,991.437
2023-02-19T10:25:16.855Z,991.770
2023-02-19T10:26:16.499Z,991.706
2023-02-19T10:27:16.200Z,991.665
2023-02-19T10:28:16.934Z,991.494
2023-02-19T10:29:16.524Z,991.904
2023-02-19T10:30:16.247Z,991.716
2023-02-19T10:31:20.185Z,991.756
2023-02-19T10:32:16.514Z,991.752
2023-02-19T10:33:16.200Z,991.669
2023-02-19T10:34:16.804Z,991.827
2023-02-19T10:35:16.606Z,991.836
2023-02-19T10:36:16.196Z,991.683
2023-02-19T10:37:16.865Z,991.837
2023-02-19T10:38:16.472Z,991.759
2023-02-19T10:39:16.129Z,991.696
2023-02-19T10:40:16.837Z,991.658
2023-02-19T10:42:16.153Z,991.971
2023-02-19T10:43:16.856Z,991.851
2023-02-19T10:44:16.447Z,991.845
2023-02-19T10:45:16.092Z,991.632
2023-02-19T10:46:16.772Z,991.747
2023-02-19T10:47:16.617Z,991.666
2023-02-19T10:48:16.253Z,992.021
2023-02-19T10:49:16.909Z,991.893
2023-02-19T10:50:16.597Z,992.031
2023-02-19T10:51:16.237Z,992.079
2023-02-19T10:52:16.708Z,991.841
2023-02-19T10:53:16.435Z,991.852
2023-02-19T10:54:16.099Z,992.008
2023-02-19T10:55:16.772Z,992.000
2023-02-19T10:56:16.408Z,992.138
2023-02-19T10:57:16.013Z,991.975
2023-02-19T10:58:16.636Z,992.049
2023-02-19T10:59:16.226Z,992.103
2023-02-19T11:00:16.798Z,992.089
2023-02-19T11:01:16.428Z,992.066
2023-02-19T11:02:16.339Z,992.095
2023-02-19T11:03:16.971Z,991.913
2023-02-19T11:04:16.686Z,992.073
2023-02-19T11:05:16.737Z,992.198
2023-02-19T11:06:16.333Z,992.336
2023-02-19T11:07:16.224Z,992.299
2023-02-19T11:08:16.804Z,992.254
2023-02-19T11:09:16.645Z,992.290
2023-02-19T11:10:16.245Z,992.368
2023-02-19T11:11:16.846Z,992.239
2023-02-19T11:12:16.537Z,992.362
2023-02-19T11:13:16.194Z,992.333
2023-02-19T11:14:17.034Z,992.192
2023-02-19T11:15:16.740Z,992.333
2023-02-19T11:16:16.380Z,992.193
2023-02-19T11:17:16.413Z,992.256
2023-02-19T11:19:17.008Z,992.356
2023-02-19T11:20:16.819Z,992.264
2023-02-19T11:21:16.216Z,992.222
2023-02-19T11:22:16.496Z,992.206
2023-02-19T11:23:16.178Z,992.345
2023-02-19T11:24:16.812Z,992.337
2023-02-19T11:25:16.977Z,992.187
2023-02-19T11:26:16.570Z,992.359
2023-02-19T11:27:16.161Z,992.312
2023-02-19T11:28:16.901Z,992.294
2023-02-19T11:29:16.475Z,992.026
2023-02-19T11:30:16.081Z,991.945
2023-02-19T11:31:16.404Z,992.340
2023-02-19T11:32:16.920Z,992.385
2023-02-19T11:34:16.269Z,992.372
2023-02-19T11:35:16.887Z,992.411
2023-02-19T11:36:16.501Z,992.319
2023-02-19T11:37:16.189Z,992.231
2023-02-19T11:38:16.845Z,992.316
2023-02-19T11:39:16.441Z,992.486
2023-02-19T11:40:17.033Z,992.302
2023-02-19T11:41:16.645Z,992.242
2023-02-19T11:42:16.353Z,992.395
2023-02-19T11:43:17.005Z,992.475
2023-02-19T11:44:16.681Z,992.460
2023-02-19T11:45:16.327Z,992.385
2023-02-19T11:46:16.981Z,992.484
2023-02-19T11:47:16.909Z,992.401
2023-02-19T11:48:16.533Z,992.302
2023-02-19T11:49:16.198Z,992.553
2023-02-19T11:50:16.827Z,992.490
2023-02-19T11:51:16.516Z,992.354
2023-02-19T11:52:16.826Z,992.571
2023-02-19T11:53:16.363Z,992.389
2023-02-19T11:54:16.991Z,992.169
2023-02-19T11:55:16.652Z,992.388
2023-02-19T11:56:16.241Z,992.263
2023-02-19T11:57:16.984Z,992.419
2023-02-19T11:58:16.622Z,992.259
2023-02-19T11:59:16.251Z,992.617
2023-02-19T12:00:16.924Z,992.315
2023-02-19T12:01:16.572Z,992.497
2023-02-19T12:02:16.539Z,992.603
2023-02-19T12:03:16.444Z,992.563
2023-02-19T12:04:16.077Z,992.533
2023-02-19T12:05:16.410Z,992.744
2023-02-19T12:06:17.012Z,992.473
2023-02-19T12:07:17.005Z,992.421
2023-02-19T12:08:16.633Z,992.535
2023-02-19T12:09:16.250Z,992.617
2023-02-19T12:10:16.896Z,992.590
2023-02-19T12:11:16.499Z,992.445
2023-02-19T12:12:16.124Z,992.716
2023-02-19T12:13:16.214Z,992.710
2023-02-19T12:14:17.019Z,992.696
2023-02-19T12:15:16.717Z,992.674
2023-02-19T12:16:16.602Z,992.798
2023-02-19T12:17:16.349Z,992.798
2023-02-19T12:18:16.004Z,992.486
2023-02-19T12:19:16.691Z,992.764
2023-02-19T12:20:16.284Z,992.762
2023-02-19T12:21:16.863Z,992.720
2023-02-19T12:22:16.531Z,992.556
2023-02-19T12:23:16.158Z,992.645
2023-02-19T12:24:16.936Z,992.251
2023-02-19T12:25:16.530Z,992.443
2023-02-19T12:26:16.847Z,992.478